Time;durP1;ratioP1;P1;durP2;ratioP2;P2;SDS_P1;SDS_P2;PMS_P1;PMS_P2;Temp;Humidity;BMP_temperature;BMP_pressure;BME280_temperature;BME280_humidity;BME280_pressure;Samples;Min_cycle;Max_cycle;Signal;HPM_P1;HPM_P2
2021/04/30 00:01:26;;;;;;;6.95;3.65;;;;;;;11.59;74.90;97280.73;1727290;83;21222;-69
2021/04/30 00:03:54;;;;;;;5.90;2.83;;;;;;;11.57;75.10;97285.75;1727160;81;21178;-71
2021/04/30 00:06:22;;;;;;;5.08;2.85;;;;;;;11.55;75.03;97289.84;1727425;82;21138;-69
2021/04/30 00:08:50;;;;;;;5.42;2.80;;;;;;;11.53;75.10;97289.17;1727472;82;21577;-72
2021/04/30 00:11:18;;;;;;;5.15;2.98;;;;;;;11.53;75.24;97287.87;1727408;83;21168;-70
2021/04/30 00:13:47;;;;;;;5.17;3.00;;;;;;;11.50;74.69;97284.31;1727260;82;21244;-69
2021/04/30 00:16:15;;;;;;;5.85;3.22;;;;;;;11.51;75.67;97288.54;1727404;83;21218;-69
2021/04/30 00:18:43;;;;;;;7.45;3.20;;;;;;;11.50;75.29;97282.19;1727283;82;21222;-69
2021/04/30 00:21:11;;;;;;;7.15;3.72;;;;;;;11.48;76.55;97279.74;1727414;83;21154;-71
2021/04/30 00:23:39;;;;;;;7.75;3.55;;;;;;;11.50;76.07;97284.80;1727367;82;21654;-71
2021/04/30 00:26:08;;;;;;;6.08;3.37;;;;;;;11.52;74.94;97283.64;1727341;83;21162;-69
2021/04/30 00:28:36;;;;;;;5.28;2.85;;;;;;;11.51;76.22;97287.73;1727451;83;21241;-69
2021/04/30 00:31:04;;;;;;;4.22;2.87;;;;;;;11.52;74.79;97288.84;1727348;81;21198;-70
2021/04/30 00:33:36;;;;;;;8.60;3.12;;;;;;;11.56;74.39;97289.32;1727236;83;21158;-69
2021/04/30 00:36:04;;;;;;;6.47;3.47;;;;;;;11.59;75.25;97285.11;1727276;82;21202;-70
2021/04/30 00:38:32;;;;;;;6.05;3.67;;;;;;;11.61;75.16;97284.45;1727476;83;21169;-70
2021/04/30 00:41:00;;;;;;;7.53;4.42;;;;;;;11.65;74.38;97289.16;1727337;83;21233;-70
2021/04/30 00:43:28;;;;;;;6.87;3.65;;;;;;;11.72;74.04;97289.33;1727351;81;21173;-71
2021/04/30 00:45:56;;;;;;;5.20;3.42;;;;;;;11.77;73.88;97287.86;1727347;83;21173;-71
2021/04/30 00:48:24;;;;;;;6.60;3.87;;;;;;;11.83;73.71;97292.39;1727241;81;21234;-72
2021/04/30 00:50:53;;;;;;;5.15;3.27;;;;;;;11.87;74.24;97290.27;1727367;83;21170;-72
2021/04/30 00:53:21;;;;;;;5.53;3.95;;;;;;;11.92;74.43;97280.66;1726306;83;21185;-72
2021/04/30 00:55:50;;;;;;;7.45;4.12;;;;;;;11.95;73.88;97286.34;1725978;83;21138;-71
2021/04/30 00:58:20;;;;;;;7.30;3.55;;;;;;;11.93;74.98;97282.30;1725629;83;21182;-72
2021/04/30 01:00:48;;;;;;;6.53;3.45;;;;;;;11.85;75.46;97293.05;1725699;83;21180;-72
2021/04/30 01:03:16;;;;;;;7.50;4.12;;;;;;;11.86;75.72;97291.27;1725838;83;21598;-71
2021/04/30 01:05:46;;;;;;;8.33;3.92;;;;;;;11.81;76.09;97296.14;1725897;83;21591;-69
2021/04/30 01:08:14;;;;;;;5.67;3.08;;;;;;;11.80;76.13;97297.93;1725708;83;21202;-70
2021/04/30 01:10:42;;;;;;;6.70;3.50;;;;;;;11.87;75.43;97298.06;1725847;83;21539;-70
2021/04/30 01:13:14;;;;;;;4.10;2.08;;;;;;;11.89;75.22;97293.52;1725738;83;21218;-70
2021/04/30 01:15:42;;;;;;;4.47;2.17;;;;;;;11.90;74.44;97292.04;1726002;83;21595;-69
2021/04/30 01:18:11;;;;;;;3.80;2.00;;;;;;;11.94;74.02;97292.55;1725928;83;21531;-71
2021/04/30 01:20:39;;;;;;;3.95;2.22;;;;;;;11.96;74.13;97296.27;1725924;83;21166;-71
2021/04/30 01:23:07;;;;;;;4.70;2.33;;;;;;;11.98;73.79;97291.72;1725894;83;21618;-70
2021/04/30 01:25:37;;;;;;;3.92;2.75;;;;;;;12.00;73.67;97289.75;1725854;83;21642;-69
2021/04/30 01:28:07;;;;;;;5.53;3.45;;;;;;;12.05;73.65;97295.27;1725804;83;21166;-70
2021/04/30 01:30:38;;;;;;;6.53;3.47;;;;;;;12.09;73.65;97286.96;1725632;83;21586;-70
2021/04/30 01:33:20;;;;;;;7.12;3.30;;;;;;;12.10;73.59;97290.38;1725829;83;21178;-71
2021/04/30 01:35:48;;;;;;;3.62;2.35;;;;;;;12.05;73.90;97290.88;1725714;83;21252;-71
2021/04/30 01:38:16;;;;;;;3.30;1.98;;;;;;;12.08;73.62;97289.72;1725840;83;21193;-71
2021/04/30 01:40:44;;;;;;;3.33;2.40;;;;;;;12.08;73.41;97289.23;1725784;83;21198;-71
2021/04/30 01:43:22;;;;;;;3.65;2.40;;;;;;;12.06;73.28;97289.88;1725814;83;21598;-71
2021/04/30 01:45:59;;;;;;;3.02;2.40;;;;;;;12.04;73.33;97286.64;1725745;83;21618;-71
2021/04/30 01:48:30;;;;;;;2.65;1.92;;;;;;;11.98;73.36;97280.83;1725820;83;21182;-71
2021/04/30 01:51:00;;;;;;;3.50;2.08;;;;;;;11.95;73.43;97286.83;1725641;83;21579;-70
2021/04/30 01:56:15;;;;;;;4.70;2.10;;;;;;;11.88;73.90;97285.39;1697508;84;21145;-71
2021/04/30 01:58:46;;;;;;;4.83;2.27;;;;;;;11.84;73.98;97273.20;1701544;83;21182;-70
2021/04/30 02:01:14;;;;;;;2.85;1.98;;;;;;;11.83;74.36;97268.98;1678698;85;21620;-70
2021/04/30 02:03:41;;;;;;;4.72;2.10;;;;;;;11.74;75.07;97267.39;1698745;84;21205;-69
2021/04/30 02:06:09;;;;;;;2.58;1.87;;;;;;;11.72;75.15;97266.73;1701445;83;21214;-69
2021/04/30 02:08:37;;;;;;;4.42;2.27;;;;;;;11.74;74.55;97274.38;1678768;85;21337;-70
2021/04/30 02:11:06;;;;;;;3.37;1.82;;;;;;;11.72;74.75;97275.84;1698814;84;21154;-70
2021/04/30 02:13:34;;;;;;;4.47;2.30;;;;;;;11.67;75.17;97274.19;1701532;83;21202;-70
2021/04/30 02:16:03;;;;;;;3.30;1.98;;;;;;;11.61;75.19;97251.94;1678795;85;21746;-70
2021/04/30 02:18:30;;;;;;;3.17;2.02;;;;;;;11.55;75.03;97257.33;1698625;84;21154;-69
2021/04/30 02:20:58;;;;;;;3.40;2.12;;;;;;;11.54;74.69;97253.10;1701433;84;21207;-70
2021/04/30 02:23:27;;;;;;;5.75;2.08;;;;;;;11.52;74.42;97248.54;1678725;85;21349;-69
2021/04/30 02:25:54;;;;;;;3.22;2.00;;;;;;;11.51;74.12;97255.22;1698793;84;21594;-70
2021/04/30 02:28:22;;;;;;;5.20;2.08;;;;;;;11.50;74.07;97260.91;1701454;84;21663;-70
2021/04/30 02:30:51;;;;;;;3.27;1.95;;;;;;;11.49;73.73;97265.78;1678502;85;21200;-70
2021/04/30 02:33:19;;;;;;;4.20;2.12;;;;;;;11.48;74.13;97264.14;1698523;84;21159;-69
2021/04/30 02:35:49;;;;;;;3.92;2.12;;;;;;;11.46;74.93;97262.70;1701407;84;21223;-69
2021/04/30 02:38:19;;;;;;;4.75;2.65;;;;;;;11.42;75.14;97271.31;1678491;85;21615;-69
2021/04/30 02:40:52;;;;;;;3.00;1.87;;;;;;;11.38;75.62;97273.44;1698588;83;21111;-68
2021/04/30 02:43:21;;;;;;;3.17;2.00;;;;;;;11.35;75.46;97271.66;1701567;84;21679;-70
2021/04/30 02:45:53;;;;;;;3.25;2.12;;;;;;;11.30;75.88;97270.84;1678659;85;21325;-69
2021/04/30 02:48:35;;;;;;;3.27;2.08;;;;;;;11.28;75.42;97274.08;1698697;84;21154;-69
2021/04/30 02:51:08;;;;;;;5.62;2.27;;;;;;;11.28;75.85;97269.39;1701638;84;21197;-69
2021/04/30 02:53:38;;;;;;;3.72;2.30;;;;;;;11.25;75.16;97280.09;1678642;85;21600;-68
2021/04/30 02:56:06;;;;;;;3.15;1.67;;;;;;;11.24;74.65;97279.31;1703871;83;21586;-69
2021/04/30 02:58:37;;;;;;;8.38;1.92;;;;;;;11.25;74.58;97282.20;1704908;84;21161;-68
2021/04/30 03:01:04;;;;;;;3.25;1.57;;;;;;;11.26;74.45;97283.02;1704795;84;21210;-69
2021/04/30 03:03:33;;;;;;;3.37;2.10;;;;;;;11.27;74.31;97281.58;1704821;84;21327;-68
2021/04/30 03:06:01;;;;;;;3.37;1.90;;;;;;;11.30;74.35;97286.44;1704671;84;21575;-68
2021/04/30 03:08:29;;;;;;;4.10;2.58;;;;;;;11.33;74.36;97291.78;1704946;84;21710;-69
2021/04/30 03:10:57;;;;;;;5.78;2.65;;;;;;;11.35;74.12;97298.95;1704812;84;21186;-69
2021/04/30 03:13:25;;;;;;;4.47;2.47;;;;;;;11.37;74.17;97296.50;1704913;84;21319;-69
2021/04/30 03:15:53;;;;;;;6.72;2.95;;;;;;;11.39;74.44;97301.55;1704889;84;21712;-69
2021/04/30 03:18:21;;;;;;;3.58;2.52;;;;;;;11.40;74.78;97308.34;1704746;84;21288;-69
2021/04/30 03:20:49;;;;;;;4.12;2.45;;;;;;;11.39;75.33;97308.86;1704852;84;21169;-70
2021/04/30 03:23:17;;;;;;;3.42;2.00;;;;;;;11.37;75.41;97317.30;1704694;84;21284;-72
2021/04/30 03:25:45;;;;;;;4.08;1.85;;;;;;;11.35;75.95;97313.25;1704819;84;21721;-70
2021/04/30 03:28:13;;;;;;;3.37;2.58;;;;;;;11.33;75.92;97314.70;1704817;83;21233;-71
2021/04/30 03:30:41;;;;;;;5.70;2.20;;;;;;;11.32;75.54;97316.97;1704854;84;21697;-70
2021/04/30 03:33:09;;;;;;;3.92;2.00;;;;;;;11.35;75.76;97327.55;1704882;84;21158;-70
2021/04/30 03:35:37;;;;;;;4.20;2.17;;;;;;;11.37;75.12;97334.20;1704790;84;21202;-69
2021/04/30 03:38:05;;;;;;;4.25;2.10;;;;;;;11.40;74.78;97350.77;1704979;84;21210;-71
2021/04/30 03:40:33;;;;;;;3.08;1.85;;;;;;;11.41;76.09;97358.89;1704922;84;21115;-72
2021/04/30 03:43:01;;;;;;;4.10;2.02;;;;;;;11.40;76.39;97357.27;1704985;84;21231;-70
2021/04/30 03:45:29;;;;;;;2.10;1.40;;;;;;;11.39;78.51;97367.36;1704818;83;21288;-68
2021/04/30 03:47:57;;;;;;;2.25;1.50;;;;;;;11.33;78.90;97378.87;1681026;84;21146;-71
2021/04/30 03:50:25;;;;;;;2.90;1.77;;;;;;;11.30;79.20;97374.00;1704845;84;21294;-71
2021/04/30 03:52:52;;;;;;;2.10;1.62;;;;;;;11.24;79.41;97375.95;1704925;84;21142;-71
2021/04/30 03:55:20;;;;;;;2.37;1.45;;;;;;;11.21;79.45;97378.85;1704640;84;21291;-68
2021/04/30 03:57:48;;;;;;;2.17;1.40;;;;;;;11.24;79.39;97378.55;1704742;84;21296;-68
2021/04/30 04:00:17;;;;;;;4.67;1.80;;;;;;;11.29;79.04;97367.16;1704978;83;21127;-68
2021/04/30 04:02:47;;;;;;;3.65;1.98;;;;;;;11.36;78.85;97367.66;1704824;84;21308;-69
2021/04/30 04:05:15;;;;;;;2.20;1.37;;;;;;;11.44;79.04;97368.14;1704979;83;21190;-69
2021/04/30 04:07:43;;;;;;;3.65;2.47;;;;;;;11.50;79.42;97359.71;1704806;83;21288;-69
2021/04/30 04:10:13;;;;;;;3.85;2.35;;;;;;;11.49;81.29;97350.28;1704980;83;21229;-70
2021/04/30 04:12:41;;;;;;;4.72;2.90;;;;;;;11.47;82.76;97337.95;1704927;84;21182;-70
2021/04/30 04:15:10;;;;;;;6.55;3.12;;;;;;;11.42;84.92;97340.21;1704946;83;21296;-69
2021/04/30 04:17:38;;;;;;;4.00;3.08;;;;;;;11.41;84.64;97355.00;1704783;83;21312;-69
2021/04/30 04:20:12;;;;;;;4.83;2.98;;;;;;;11.43;83.78;97353.06;1704979;83;21167;-70
2021/04/30 04:22:40;;;;;;;5.33;3.37;;;;;;;11.38;85.16;97331.93;1704925;84;21166;-69
2021/04/30 04:25:11;;;;;;;7.10;3.75;;;;;;;11.30;86.37;97348.82;1704948;84;21131;-71
2021/04/30 04:27:42;;;;;;;5.35;2.72;;;;;;;11.23;86.35;97367.83;1704906;84;21324;-71
2021/04/30 04:30:15;;;;;;;4.45;3.15;;;;;;;11.27;85.89;97381.64;1704894;84;21323;-70
2021/04/30 04:32:44;;;;;;;5.70;2.98;;;;;;;11.35;85.21;97375.16;1705046;84;21347;-69
2021/04/30 04:35:14;;;;;;;4.80;2.77;;;;;;;11.39;85.39;97372.55;1705023;83;21165;-69
2021/04/30 04:37:41;;;;;;;4.97;2.77;;;;;;;11.48;84.42;97375.95;1705008;83;21170;-69
2021/04/30 04:40:11;;;;;;;5.83;2.83;;;;;;;11.62;84.05;97376.62;1704901;83;21166;-72
2021/04/30 04:42:39;;;;;;;5.40;2.65;;;;;;;11.73;83.11;97372.41;1704907;83;21276;-70
2021/04/30 04:45:08;;;;;;;4.75;3.00;;;;;;;11.86;82.47;97383.14;1704889;84;21742;-69
2021/04/30 04:47:37;;;;;;;5.00;2.65;;;;;;;11.97;82.52;97392.38;1704978;84;21295;-67
2021/04/30 04:50:08;;;;;;;6.05;3.10;;;;;;;12.05;82.73;97387.17;1708394;83;21155;-69
2021/04/30 04:52:36;;;;;;;4.45;3.05;;;;;;;12.09;82.64;97391.06;1713718;83;21169;-71
2021/04/30 04:55:06;;;;;;;3.92;1.98;;;;;;;12.08;83.68;97402.93;1710891;83;21162;-70
2021/04/30 04:57:34;;;;;;;6.15;2.58;;;;;;;12.13;83.12;97399.35;1695853;84;21147;-69
2021/04/30 05:00:05;;;;;;;3.42;2.27;;;;;;;12.23;82.77;97397.36;1695168;84;21167;-70
2021/04/30 05:02:33;;;;;;;2.25;1.85;;;;;;;12.35;81.99;97398.64;1695629;84;21207;-69
2021/04/30 05:05:04;;;;;;;5.08;2.05;;;;;;;12.46;81.55;97403.97;1695588;84;21204;-70
2021/04/30 05:07:32;;;;;;;2.87;1.57;;;;;;;12.56;81.02;97409.81;1695822;84;21179;-70
2021/04/30 05:09:59;;;;;;;4.78;1.95;;;;;;;12.67;80.87;97408.14;1695802;84;21144;-69
2021/04/30 05:12:27;;;;;;;5.05;2.33;;;;;;;12.77;81.07;97416.06;1695617;84;21250;-70
2021/04/30 05:14:55;;;;;;;4.67;2.50;;;;;;;12.82;81.60;97416.86;1695556;84;21569;-70
2021/04/30 05:17:23;;;;;;;4.90;2.77;;;;;;;12.73;83.02;97420.47;1695357;84;21191;-71
2021/04/30 05:19:51;;;;;;;6.95;3.00;;;;;;;12.83;82.94;97411.49;1695496;84;21719;-68
2021/04/30 05:22:21;;;;;;;2.75;2.37;;;;;;;12.82;83.12;97407.25;1695678;84;21183;-70
2021/04/30 05:24:48;;;;;;;7.00;3.70;;;;;;;12.83;85.08;97406.28;1695673;84;21609;-69
2021/04/30 05:27:16;;;;;;;4.17;2.77;;;;;;;12.90;83.56;97420.73;1691151;84;21246;-70
2021/04/30 05:29:44;;;;;;;3.37;2.42;;;;;;;12.97;83.85;97434.70;1695632;84;21321;-67
2021/04/30 05:32:16;;;;;;;3.00;1.95;;;;;;;12.96;85.04;97435.67;1671773;84;21185;-68
2021/04/30 05:34:45;;;;;;;3.12;1.70;;;;;;;12.98;84.94;97429.82;1677166;85;21240;-67
2021/04/30 05:37:13;;;;;;;5.60;3.58;;;;;;;13.07;83.14;97427.99;1678642;85;21201;-67
2021/04/30 05:39:41;;;;;;;4.08;1.95;;;;;;;13.12;84.11;97429.60;1678669;85;21216;-67
2021/04/30 05:42:10;;;;;;;5.37;2.77;;;;;;;13.33;83.19;97436.83;1678730;85;21180;-67
2021/04/30 05:44:38;;;;;;;4.35;2.90;;;;;;;13.44;83.37;97445.06;1678845;85;21218;-67
2021/04/30 05:47:12;;;;;;;2.72;1.60;;;;;;;13.54;84.40;97450.86;1650268;82;21188;-66
2021/04/30 05:49:40;;;;;;;5.00;2.22;;;;;;;13.64;81.07;97446.73;1650742;87;21179;-66
2021/04/30 05:52:08;;;;;;;3.90;2.10;;;;;;;13.74;82.42;97449.41;1650518;87;21782;-67
2021/04/30 05:54:59;;;;;;;6.00;2.12;;;;;;;13.90;81.81;97451.57;1650876;87;21187;-66
2021/04/30 05:57:28;;;;;;;3.30;2.30;;;;;;;14.01;80.06;97454.57;1634658;87;21183;-66
2021/04/30 05:59:55;;;;;;;3.15;2.65;;;;;;;14.09;80.26;97457.12;1639134;86;21188;-69
2021/04/30 06:02:24;;;;;;;8.30;3.15;;;;;;;14.01;81.17;97465.50;1640171;87;21227;-67
2021/04/30 06:04:53;;;;;;;4.17;3.25;;;;;;;14.13;79.03;97461.00;1638957;86;21222;-66
2021/04/30 06:07:21;;;;;;;4.08;2.33;;;;;;;14.17;79.60;97464.06;1634114;88;21168;-67
2021/04/30 06:09:50;;;;;;;5.00;2.77;;;;;;;14.46;79.79;97467.26;1639280;86;21188;-66
2021/04/30 06:12:18;;;;;;;6.22;3.08;;;;;;;14.48;79.50;97470.48;1638331;87;21266;-66
2021/04/30 06:14:46;;;;;;;13.50;3.17;;;;;;;14.57;78.20;97466.32;1639044;86;21208;-68
2021/04/30 06:17:14;;;;;;;5.53;2.12;;;;;;;14.67;78.48;97466.85;1634268;87;21192;-72
2021/04/30 06:19:45;;;;;;;54.40;23.62;;;;;;;14.79;77.28;97456.75;1638856;87;21218;-73
2021/04/30 06:22:35;;;;;;;27.55;13.60;;;;;;;14.90;77.45;97450.28;1633994;87;21204;-72
2021/04/30 06:25:24;;;;;;;11.95;5.97;;;;;;;14.97;76.48;97452.48;1672831;86;21386;-70
2021/04/30 06:27:54;;;;;;;5.72;3.83;;;;;;;14.96;77.47;97455.58;1620889;88;21329;-70
2021/04/30 06:30:22;;;;;;;6.10;3.65;;;;;;;14.91;78.91;97455.30;1612189;87;21329;-71
2021/04/30 06:32:50;;;;;;;5.97;3.95;;;;;;;14.86;77.80;97463.40;1639741;86;21223;-70
2021/04/30 06:35:18;;;;;;;7.15;4.47;;;;;;;14.73;78.18;97463.53;1612126;89;21353;-73
2021/04/30 06:37:46;;;;;;;7.85;3.80;;;;;;;14.64;78.86;97466.41;1639846;86;21608;-71
2021/04/30 06:40:14;;;;;;;7.45;3.45;;;;;;;14.65;79.14;97464.93;1612119;88;21195;-65
2021/04/30 06:42:43;;;;;;;4.95;3.15;;;;;;;14.56;79.46;97471.22;1642999;86;21595;-65
2021/04/30 06:45:13;;;;;;;6.70;3.95;;;;;;;14.52;79.97;97473.88;1630329;86;21181;-64
2021/04/30 06:47:43;;;;;;;5.90;3.98;;;;;;;14.38;79.88;97473.87;1630263;88;21611;-65
2021/04/30 06:50:12;;;;;;;5.03;3.37;;;;;;;14.33;81.16;97471.75;1636237;86;21623;-65
2021/04/30 06:52:41;;;;;;;5.35;3.58;;;;;;;14.33;80.94;97480.89;1633765;87;21167;-70
2021/04/30 06:55:10;;;;;;;7.08;3.27;;;;;;;14.31;81.37;97477.66;1635920;88;21239;-65
2021/04/30 06:57:42;;;;;;;3.67;2.52;;;;;;;14.35;81.30;97484.67;1630050;86;21197;-65
2021/04/30 07:00:33;;;;;;;7.62;3.83;;;;;;;14.33;81.38;97484.00;1635407;86;21179;-65
2021/04/30 07:03:01;;;;;;;9.30;5.30;;;;;;;14.30;81.20;97483.87;1678947;83;21600;-68
2021/04/30 07:05:30;;;;;;;7.33;4.33;;;;;;;14.42;82.47;97490.81;1704169;83;21183;-65
2021/04/30 07:08:03;;;;;;;9.13;3.67;;;;;;;14.55;81.16;97494.41;1715514;83;21238;-64
2021/04/30 07:10:33;;;;;;;4.55;2.77;;;;;;;14.73;80.64;97506.66;1720668;83;21170;-65
2021/04/30 07:13:10;;;;;;;5.08;3.12;;;;;;;14.93;79.61;97507.42;1723564;83;21178;-70
2021/04/30 07:15:41;;;;;;;4.75;2.40;;;;;;;15.05;78.08;97513.83;1718640;83;21184;-71
2021/04/30 07:18:09;;;;;;;4.95;3.05;;;;;;;15.18;77.64;97517.90;1717117;83;21166;-65
2021/04/30 07:20:40;;;;;;;4.67;2.45;;;;;;;15.26;77.07;97520.42;1715302;83;21175;-70
2021/04/30 07:23:10;;;;;;;7.53;3.47;;;;;;;15.35;76.82;97523.25;1717281;83;21191;-72
2021/04/30 07:25:59;;;;;;;6.22;2.95;;;;;;;15.32;76.14;97524.94;1754267;81;21226;-73
2021/04/30 07:28:28;;;;;;;5.10;3.58;;;;;;;15.39;76.21;97522.39;1759070;81;21158;-72
2021/04/30 07:30:57;;;;;;;11.05;4.22;;;;;;;15.23;77.32;97515.56;1741598;81;21580;-71
2021/04/30 07:33:25;;;;;;;5.72;3.52;;;;;;;15.08;77.62;97499.89;1751201;81;21168;-72
2021/04/30 07:35:53;;;;;;;6.47;3.95;;;;;;;15.33;76.79;97511.36;1762361;80;21202;-70
2021/04/30 07:38:21;;;;;;;11.25;8.10;;;;;;;15.33;77.35;97508.22;1758134;81;21220;-73
2021/04/30 07:41:11;;;;;;;15.20;9.65;;;;;;;15.23;78.88;97502.48;1755395;81;21173;-72
2021/04/30 07:43:39;;;;;;;14.20;8.58;;;;;;;15.10;79.68;97503.61;1696326;83;21191;-72
2021/04/30 07:46:07;;;;;;;7.42;5.67;;;;;;;15.38;78.71;97501.14;1671049;86;21177;-72
2021/04/30 07:48:36;;;;;;;7.17;5.67;;;;;;;15.52;77.58;97510.31;1699964;83;21644;-72
2021/04/30 07:51:06;;;;;;;5.58;3.67;;;;;;;15.69;77.58;97520.04;1699805;84;21208;-65
2021/04/30 07:53:34;;;;;;;5.33;3.50;;;;;;;15.65;77.78;97516.17;1699986;83;21644;-65
2021/04/30 07:56:03;;;;;;;5.80;3.40;;;;;;;15.76;77.04;97511.75;1671294;84;21588;-65
2021/04/30 07:58:31;;;;;;;7.33;3.98;;;;;;;15.76;78.28;97509.66;1700217;84;21239;-65
2021/04/30 08:01:00;;;;;;;7.75;3.95;;;;;;;15.43;78.50;97506.14;1670951;84;21223;-65
2021/04/30 08:03:28;;;;;;;6.35;4.05;;;;;;;15.62;78.26;97511.31;1700052;84;21140;-72
2021/04/30 08:05:56;;;;;;;8.58;5.17;;;;;;;15.68;78.17;97511.38;1671062;86;21552;-72
2021/04/30 08:08:24;;;;;;;8.98;4.62;;;;;;;15.74;78.58;97511.63;1700006;84;21599;-74
2021/04/30 08:10:52;;;;;;;9.65;4.78;;;;;;;15.66;77.42;97508.14;1671361;86;21322;-72
2021/04/30 08:13:20;;;;;;;8.33;4.33;;;;;;;15.70;77.48;97519.05;1690500;84;22278;-73
2021/04/30 08:15:48;;;;;;;5.00;3.50;;;;;;;15.73;77.31;97506.89;1629121;86;21664;-73
2021/04/30 08:18:16;;;;;;;6.58;3.22;;;;;;;15.78;76.55;97508.46;1685546;84;21576;-72
2021/04/30 08:20:44;;;;;;;4.45;2.98;;;;;;;15.74;76.49;97511.14;1676670;84;21178;-74
2021/04/30 08:23:13;;;;;;;5.10;3.20;;;;;;;15.84;76.12;97510.32;1681300;84;21583;-78
2021/04/30 08:25:42;;;;;;;5.80;3.30;;;;;;;15.94;76.64;97512.65;1696956;84;21273;-74
2021/04/30 08:28:09;;;;;;;6.10;3.10;;;;;;;16.07;76.89;97504.89;1699588;84;21161;-73
2021/04/30 08:30:37;;;;;;;5.35;2.80;;;;;;;16.21;75.71;97500.59;1696510;84;21183;-73
2021/04/30 08:33:06;;;;;;;5.37;3.37;;;;;;;16.22;75.01;97508.27;1698875;84;21148;-73
2021/04/30 08:35:35;;;;;;;4.58;3.17;;;;;;;16.42;73.72;97510.53;1694390;84;21584;-72
2021/04/30 08:38:04;;;;;;;5.05;2.87;;;;;;;16.42;74.18;97515.77;1697510;83;21247;-71
2021/04/30 08:40:33;;;;;;;5.00;3.30;;;;;;;16.58;72.95;97514.21;1699924;84;21196;-73
2021/04/30 08:43:01;;;;;;;7.10;3.20;;;;;;;16.70;73.66;97512.37;1691476;83;21609;-71
2021/04/30 08:45:30;;;;;;;4.80;2.75;;;;;;;17.02;72.53;97506.52;1687854;84;21176;-74
2021/04/30 08:47:57;;;;;;;4.97;3.27;;;;;;;17.16;71.70;97508.72;1687922;85;21601;-72
2021/04/30 08:50:25;;;;;;;6.50;3.35;;;;;;;17.12;70.82;97510.11;1687867;85;21192;-74
2021/04/30 08:52:54;;;;;;;5.92;2.90;;;;;;;17.22;71.39;97496.93;1688684;85;21352;-66
2021/04/30 08:55:24;;;;;;;4.35;2.77;;;;;;;17.15;71.30;97491.34;1688345;84;21318;-66
2021/04/30 08:57:54;;;;;;;4.37;2.65;;;;;;;17.22;71.14;97494.30;1688051;85;21711;-65
2021/04/30 09:00:25;;;;;;;6.60;3.30;;;;;;;17.43;71.05;97490.23;1687177;85;21659;-66
2021/04/30 09:02:55;;;;;;;3.62;2.70;;;;;;;17.50;70.92;97492.89;1687612;84;21168;-67
2021/04/30 09:05:26;;;;;;;4.78;2.65;;;;;;;17.61;70.62;97494.16;1687634;84;21555;-68
2021/04/30 09:07:59;;;;;;;6.22;3.17;;;;;;;18.00;70.25;97495.55;1687468;85;21735;-67
2021/04/30 09:10:51;;;;;;;6.70;3.42;;;;;;;18.29;68.35;97491.70;1687578;84;21208;-68
2021/04/30 09:13:21;;;;;;;6.28;3.47;;;;;;;18.54;66.84;97496.69;1700778;83;21555;-67
2021/04/30 09:16:06;;;;;;;5.95;3.87;;;;;;;18.73;64.47;97492.41;1700919;83;21244;-66
2021/04/30 09:18:35;;;;;;;10.00;5.65;;;;;;;19.01;65.53;97493.46;1700623;83;21613;-68
2021/04/30 09:21:10;;;;;;;5.97;4.03;;;;;;;19.04;65.63;97493.85;1700658;83;21201;-67
2021/04/30 09:23:43;;;;;;;5.55;2.95;;;;;;;19.08;64.36;97495.06;1700959;83;21236;-75
2021/04/30 09:29:31;;;;;;;3.85;2.40;;;;;;;18.67;64.12;97500.63;1752222;81;21176;-74
2021/04/30 09:31:58;;;;;;;3.95;2.58;;;;;;;18.85;63.45;97503.92;1752409;82;21168;-75
2021/04/30 09:34:36;;;;;;;3.17;1.75;;;;;;;18.74;62.59;97502.73;1752360;82;21136;-74
2021/04/30 09:37:17;;;;;;;2.52;1.60;;;;;;;18.59;62.52;97502.66;1752498;82;21205;-75
2021/04/30 09:39:52;;;;;;;2.80;1.77;;;;;;;18.62;63.00;97504.88;1752187;82;21164;-75
2021/04/30 09:42:24;;;;;;;4.78;1.60;;;;;;;18.55;63.17;97504.08;1752608;82;21287;-74
2021/04/30 09:44:56;;;;;;;4.10;1.82;;;;;;;18.52;63.45;97500.55;1752774;82;21167;-73
2021/04/30 09:47:28;;;;;;;2.60;1.72;;;;;;;18.31;66.05;97504.16;1723502;82;21219;-73
2021/04/30 09:50:10;;;;;;;5.28;1.90;;;;;;;18.16;66.02;97501.73;1752753;81;21714;-75
2021/04/30 09:52:42;;;;;;;3.62;1.92;;;;;;;18.08;66.89;97497.98;1752555;81;21309;-72
2021/04/30 09:55:14;;;;;;;2.83;2.10;;;;;;;17.85;67.38;97495.73;1722292;82;21161;-73
2021/04/30 09:57:42;;;;;;;2.47;1.65;;;;;;;17.65;68.10;97491.45;1752868;82;21149;-74
2021/04/30 10:00:14;;;;;;;3.30;2.10;;;;;;;17.73;68.23;97491.27;1752701;82;21168;-74
2021/04/30 10:02:46;;;;;;;3.45;2.15;;;;;;;17.66;69.38;97489.95;1752710;82;21152;-73
2021/04/30 10:05:21;;;;;;;2.67;1.82;;;;;;;17.91;69.71;97486.23;1753113;81;21231;-68
2021/04/30 10:07:49;;;;;;;;;;;;;;;18.07;69.27;97486.34;1746032;81;21203;-66
2021/04/30 10:10:22;;;;;;;3.62;2.33;;;;;;;18.24;67.57;97494.97;1743575;82;20324;-66
2021/04/30 10:12:57;;;;;;;11.68;4.80;;;;;;;18.05;68.21;97501.52;1743825;82;21700;-66
2021/04/30 10:15:26;;;;;;;9.47;3.57;;;;;;;18.29;66.54;97500.41;1744214;82;21306;-66
2021/04/30 10:17:57;;;;;;;4.80;2.85;;;;;;;18.80;66.58;97491.38;1744634;81;21353;-67
2021/04/30 10:20:26;;;;;;;5.95;2.12;;;;;;;19.29;64.38;97492.16;1744143;81;21376;-66
2021/04/30 10:22:56;;;;;;;2.37;1.57;;;;;;;20.07;61.94;97490.62;1744120;81;21269;-66
2021/04/30 10:25:26;;;;;;;3.42;1.60;;;;;;;20.46;58.76;97484.27;1743946;82;21298;-66
2021/04/30 10:27:55;;;;;;;2.40;1.50;;;;;;;20.76;57.71;97482.55;1745906;82;21168;-66
2021/04/30 10:30:38;;;;;;;3.75;1.98;;;;;;;21.09;56.78;97483.50;1751598;81;21156;-66
2021/04/30 10:33:38;;;;;;;4.30;2.02;;;;;;;20.88;58.32;97480.80;1751727;82;21245;-73
2021/04/30 10:36:39;;;;;;;3.50;1.98;;;;;;;20.66;57.60;97473.02;1617050;87;21180;-68
2021/04/30 10:39:13;;;;;;;2.70;1.95;;;;;;;20.54;58.69;97470.80;1620202;88;21736;-68
2021/04/30 10:41:44;;;;;;;3.87;2.05;;;;;;;21.08;57.25;97468.20;1624306;88;21595;-68
2021/04/30 10:44:28;;;;;;;4.28;2.02;;;;;;;21.56;55.97;97460.80;1645952;86;21139;-68
2021/04/30 10:47:28;;;;;;;4.53;2.22;;;;;;;21.75;55.36;97467.64;1646784;87;21202;-68
2021/04/30 10:50:34;;;;;;;2.08;1.52;;;;;;;22.20;54.12;97457.44;1611724;89;21243;-69
2021/04/30 10:53:25;;;;;;;2.42;1.65;;;;;;;22.18;53.99;97455.52;1683512;84;21222;-68
2021/04/30 10:55:54;;;;;;;7.50;2.47;;;;;;;22.18;53.71;97450.23;1629312;87;21273;-68
2021/04/30 10:58:37;;;;;;;6.33;2.40;;;;;;;21.54;55.84;97461.55;1705402;83;21592;-68
2021/04/30 11:01:37;;;;;;;3.12;1.72;;;;;;;21.36;56.01;97453.13;1708047;84;21191;-67
2021/04/30 11:04:12;;;;;;;3.00;1.95;;;;;;;20.62;58.26;97445.46;1707994;84;21167;-68
2021/04/30 11:06:45;;;;;;;3.65;1.77;;;;;;;20.58;57.54;97446.38;1708497;84;21187;-67
2021/04/30 11:09:41;;;;;;;3.50;1.92;;;;;;;20.50;58.34;97442.73;1708637;84;21584;-66
2021/04/30 11:12:28;;;;;;;1.82;1.25;;;;;;;21.00;56.85;97443.92;1681412;85;21143;-65
2021/04/30 11:15:10;;;;;;;3.02;1.70;;;;;;;21.77;54.93;97432.55;1665722;85;21235;-67
2021/04/30 11:17:56;;;;;;;3.27;2.35;;;;;;;21.98;54.41;97434.71;1681508;85;21160;-67
2021/04/30 11:20:28;;;;;;;3.27;2.25;;;;;;;22.08;54.84;97432.81;1681546;85;21620;-68
2021/04/30 11:23:25;;;;;;;3.72;1.90;;;;;;;22.75;52.40;97437.27;1683880;84;21179;-67
2021/04/30 11:26:01;;;;;;;2.00;1.72;;;;;;;23.03;51.56;97433.37;1681365;85;21587;-67
2021/04/30 11:28:35;;;;;;;2.77;1.67;;;;;;;23.29;50.60;97426.20;1681389;85;21167;-67
2021/04/30 11:31:32;;;;;;;4.05;1.82;;;;;;;23.55;50.32;97430.14;1681317;85;21596;-67
2021/04/30 11:34:15;;;;;;;3.35;1.87;;;;;;;23.60;50.08;97427.59;1681279;85;21186;-67
2021/04/30 11:36:50;;;;;;;3.00;2.00;;;;;;;23.75;50.48;97429.18;1675454;85;21159;-67
2021/04/30 11:39:26;;;;;;;2.60;1.70;;;;;;;23.56;49.59;97424.62;1681722;85;21277;-73
2021/04/30 11:42:00;;;;;;;4.87;1.65;;;;;;;23.94;49.34;97417.83;1681800;85;21162;-73
2021/04/30 11:44:28;;;;;;;2.70;1.75;;;;;;;24.11;48.24;97415.47;1682106;85;21274;-74
2021/04/30 11:47:04;;;;;;;2.42;1.62;;;;;;;25.03;46.34;97409.61;1681752;84;21158;-74
2021/04/30 11:49:37;;;;;;;2.22;1.50;;;;;;;25.51;44.77;97397.66;1681405;85;21180;-74
2021/04/30 11:52:13;;;;;;;2.45;1.60;;;;;;;26.24;44.02;97396.70;1681361;85;21179;-74
2021/04/30 11:54:42;;;;;;;3.45;1.60;;;;;;;26.70;42.13;97388.45;1681612;85;21163;-73
2021/04/30 11:57:13;;;;;;;2.90;1.70;;;;;;;26.80;41.93;97389.84;1681453;84;21529;-73
2021/04/30 11:59:44;;;;;;;2.08;1.75;;;;;;;26.96;41.78;97384.08;1681401;85;21207;-74